createdAt,value
2022-10-01T00:02:07.971Z,72.30
2022-10-01T00:04:39.657Z,72.70
2022-10-01T00:07:10.989Z,71.00
2022-10-01T00:09:39.240Z,73.25
2022-10-01T00:12:07.927Z,74.38
2022-10-01T00:14:38.502Z,63.42
2022-10-01T00:17:06.580Z,70.90
2022-10-01T00:19:34.339Z,75.85
2022-10-01T00:22:02.381Z,78.22
2022-10-01T00:24:30.279Z,68.88
2022-10-01T00:26:58.018Z,68.07
2022-10-01T00:29:25.799Z,71.88
2022-10-01T00:31:53.948Z,75.20
2022-10-01T00:34:21.781Z,76.93
2022-10-01T00:36:49.538Z,72.47
2022-10-01T00:39:17.512Z,74.93
2022-10-01T00:41:45.184Z,73.13
2022-10-01T00:44:36.405Z,69.05
2022-10-01T00:47:31.809Z,64.68
2022-10-01T00:50:08.782Z,66.50
2022-10-01T00:52:40.769Z,68.25
2022-10-01T00:55:18.837Z,78.28
2022-10-01T00:57:47.137Z,78.93
2022-10-01T01:00:15.511Z,89.82
2022-10-01T01:02:43.840Z,89.93
2022-10-01T01:05:13.412Z,84.50
2022-10-01T01:07:45.616Z,84.57
2022-10-01T01:10:29.963Z,93.20
2022-10-01T01:13:11.582Z,83.78
2022-10-01T01:15:51.267Z,74.63
2022-10-01T01:18:34.469Z,72.50
2022-10-01T01:21:19.731Z,77.78
2022-10-01T01:24:08.443Z,73.45
2022-10-01T01:27:29.131Z,72.68
2022-10-01T01:30:18.086Z,72.38
2022-10-01T01:33:04.832Z,72.03
2022-10-01T01:35:44.137Z,66.30
2022-10-01T01:38:15.883Z,67.95
2022-10-01T01:40:47.517Z,65.75
2022-10-01T01:43:20.576Z,67.15
2022-10-01T01:45:52.622Z,63.38
2022-10-01T01:48:22.593Z,61.20
2022-10-01T01:51:06.425Z,61.85
2022-10-01T01:53:35.776Z,65.53
2022-10-01T01:56:04.933Z,71.35
2022-10-01T01:58:35.055Z,62.80
2022-10-01T02:01:04.299Z,63.95
2022-10-01T02:03:35.311Z,64.53
2022-10-01T02:06:27.215Z,72.32
2022-10-01T02:09:18.136Z,66.70
2022-10-01T02:12:00.942Z,66.30
2022-10-01T02:15:05.477Z,69.28
2022-10-01T02:17:46.538Z,59.53
2022-10-01T02:20:24.013Z,64.10
2022-10-01T02:22:59.366Z,65.68
2022-10-01T02:25:34.644Z,68.57
2022-10-01T02:28:08.680Z,68.85
2022-10-01T02:30:39.491Z,72.32
2022-10-01T02:33:09.860Z,77.72
2022-10-01T02:35:38.961Z,80.45
2022-10-01T02:38:09.581Z,74.07
2022-10-01T02:40:42.310Z,73.55
2022-10-01T02:43:18.984Z,76.20
2022-10-01T02:45:51.829Z,70.97
2022-10-01T02:48:20.006Z,72.68
2022-10-01T02:50:56.055Z,67.20
2022-10-01T02:53:31.394Z,64.15
2022-10-01T02:56:02.111Z,63.22
2022-10-01T02:58:30.349Z,59.63
2022-10-01T03:00:58.187Z,62.58
2022-10-01T03:03:26.204Z,62.60
2022-10-01T03:05:54.148Z,59.75
2022-10-01T03:08:21.894Z,65.28
2022-10-01T03:10:50.555Z,64.00
2022-10-01T03:13:19.806Z,63.70
2022-10-01T03:15:47.709Z,59.88
2022-10-01T03:18:15.452Z,66.80
2022-10-01T03:20:43.465Z,64.25
2022-10-01T03:23:11.243Z,64.18
2022-10-01T03:25:39.102Z,61.15
2022-10-01T03:28:06.989Z,58.40
2022-10-01T03:30:34.853Z,61.50
2022-10-01T03:33:02.598Z,63.90
2022-10-01T03:35:32.291Z,65.97
2022-10-01T03:38:00.021Z,66.15
2022-10-01T03:40:27.723Z,65.22
2022-10-01T03:42:55.812Z,60.03
2022-10-01T03:45:23.656Z,62.92
2022-10-01T03:47:54.521Z,66.72
2022-10-01T03:50:22.464Z,65.63
2022-10-01T03:52:51.372Z,67.32
2022-10-01T03:55:19.434Z,65.10
2022-10-01T03:57:47.569Z,64.78
2022-10-01T04:00:15.341Z,65.63
2022-10-01T04:02:43.364Z,72.10
2022-10-01T04:05:12.394Z,72.47
2022-10-01T04:07:41.616Z,71.40
2022-10-01T04:10:09.622Z,62.80
2022-10-01T04:12:37.548Z,72.65
2022-10-01T04:15:05.469Z,69.55
2022-10-01T04:17:33.589Z,73.80
2022-10-01T04:20:01.931Z,66.03
2022-10-01T04:22:29.990Z,72.60
2022-10-01T04:24:57.721Z,70.88
2022-10-01T04:27:26.351Z,69.65
2022-10-01T04:29:54.013Z,69.03
2022-10-01T04:32:22.254Z,74.10
2022-10-01T04:34:53.436Z,67.90
2022-10-01T04:37:22.454Z,70.22
2022-10-01T04:39:50.690Z,70.90
2022-10-01T04:42:18.693Z,74.13
2022-10-01T04:44:46.402Z,68.00
2022-10-01T04:47:14.161Z,67.68
2022-10-01T04:49:42.113Z,68.28
2022-10-01T04:52:09.814Z,68.57
2022-10-01T04:54:37.508Z,83.72
2022-10-01T04:57:05.577Z,70.63
2022-10-01T04:59:33.798Z,82.40
2022-10-01T05:02:01.574Z,137.25
2022-10-01T05:04:29.529Z,110.75
2022-10-01T05:06:57.232Z,96.22
2022-10-01T05:09:25.052Z,94.35
2022-10-01T05:11:53.063Z,95.93
2022-10-01T05:14:21.995Z,93.10
2022-10-01T05:16:50.232Z,83.03
2022-10-01T05:19:18.386Z,86.30
2022-10-01T05:21:46.256Z,85.05
2022-10-01T05:24:14.308Z,80.78
2022-10-01T05:26:42.188Z,80.95
2022-10-01T05:29:10.119Z,82.80
2022-10-01T05:31:38.402Z,75.80
2022-10-01T05:34:06.786Z,76.70
2022-10-01T05:36:34.533Z,75.85
2022-10-01T05:39:04.825Z,73.75
2022-10-01T05:41:33.067Z,68.32
2022-10-01T05:44:02.957Z,69.05
2022-10-01T05:46:32.027Z,65.15
2022-10-01T05:49:00.180Z,65.53
2022-10-01T05:51:28.359Z,66.93
2022-10-01T05:53:59.107Z,66.22
2022-10-01T05:56:27.163Z,67.88
2022-10-01T05:58:55.155Z,67.35
2022-10-01T06:01:22.925Z,73.47
2022-10-01T06:03:54.004Z,65.38
2022-10-01T06:06:28.248Z,68.10
2022-10-01T06:08:56.275Z,65.80
2022-10-01T06:11:24.983Z,67.60
2022-10-01T06:13:53.089Z,67.38
2022-10-01T06:16:21.373Z,69.07
2022-10-01T06:18:49.678Z,66.95
2022-10-01T06:21:17.402Z,66.70
2022-10-01T06:23:45.845Z,66.78
2022-10-01T06:26:13.475Z,68.97
2022-10-01T06:28:41.467Z,67.65
2022-10-01T06:31:09.451Z,62.50
2022-10-01T06:33:37.550Z,65.00
2022-10-01T06:36:05.594Z,64.97
2022-10-01T06:38:33.620Z,62.03
2022-10-01T06:41:04.388Z,64.60
2022-10-01T06:43:33.210Z,59.72
2022-10-01T06:46:05.437Z,63.17
2022-10-01T06:48:36.575Z,57.80
2022-10-01T06:51:05.853Z,55.13
2022-10-01T06:53:33.745Z,56.92
2022-10-01T06:56:06.770Z,60.13
2022-10-01T06:58:35.020Z,57.03
2022-10-01T07:01:04.046Z,52.30
2022-10-01T07:03:32.260Z,54.40
2022-10-01T07:06:04.478Z,48.53
2022-10-01T07:08:33.425Z,52.67
2022-10-01T07:11:02.866Z,48.33
2022-10-01T07:13:30.846Z,48.55
2022-10-01T07:15:58.592Z,45.90
2022-10-01T07:18:27.058Z,44.15
2022-10-01T07:20:57.550Z,46.17
2022-10-01T07:23:25.489Z,47.47
2022-10-01T07:25:53.591Z,44.42
2022-10-01T07:28:25.653Z,43.38
2022-10-01T07:31:06.708Z,42.35
2022-10-01T07:33:35.456Z,43.13
2022-10-01T07:36:06.069Z,46.25
2022-10-01T07:38:34.181Z,44.40
2022-10-01T07:41:03.526Z,39.83
2022-10-01T07:43:33.308Z,35.58
2022-10-01T07:46:03.548Z,39.03
2022-10-01T07:48:31.704Z,38.35
2022-10-01T07:50:59.612Z,36.13
2022-10-01T07:53:28.280Z,36.03
2022-10-01T07:55:56.855Z,34.67
2022-10-01T07:58:24.864Z,35.28
2022-10-01T08:00:58.255Z,33.65
2022-10-01T08:03:26.769Z,32.63
2022-10-01T08:05:54.706Z,34.58
2022-10-01T08:08:22.808Z,34.40
2022-10-01T08:10:50.950Z,30.02
2022-10-01T08:13:19.153Z,31.15
2022-10-01T08:15:53.666Z,33.08
2022-10-01T08:18:23.805Z,31.42
2022-10-01T08:20:52.630Z,29.95
2022-10-01T08:23:21.619Z,33.47
2022-10-01T08:25:49.281Z,26.90
2022-10-01T08:28:17.282Z,24.70
2022-10-01T08:30:45.524Z,24.42
2022-10-01T08:33:14.298Z,23.92
2022-10-01T08:35:43.693Z,25.98
2022-10-01T08:38:12.907Z,26.23
2022-10-01T08:40:50.664Z,24.58
2022-10-01T08:43:31.427Z,23.63
2022-10-01T08:46:13.778Z,25.35
2022-10-01T08:48:56.807Z,23.80
2022-10-01T08:51:32.758Z,23.67
2022-10-01T08:54:39.885Z,21.13
2022-10-01T08:57:17.593Z,21.23
2022-10-01T08:59:47.325Z,23.13
2022-10-01T09:02:27.597Z,22.25
2022-10-01T09:05:01.781Z,23.95
2022-10-01T09:07:41.958Z,24.42
2022-10-01T09:10:21.904Z,25.23
2022-10-01T09:13:14.053Z,21.83
2022-10-01T09:15:53.887Z,20.13
2022-10-01T09:18:43.060Z,20.23
2022-10-01T09:21:25.323Z,17.10
2022-10-01T09:24:11.997Z,15.80
2022-10-01T09:26:46.690Z,17.38
2022-10-01T09:29:23.926Z,17.65
2022-10-01T09:31:54.005Z,15.38
2022-10-01T09:34:37.340Z,16.50
2022-10-01T09:37:14.806Z,14.32
2022-10-01T09:40:00.382Z,15.80
2022-10-01T09:42:30.327Z,17.23
2022-10-01T09:44:58.649Z,18.73
2022-10-01T09:47:26.904Z,18.45
2022-10-01T09:49:55.256Z,18.75
2022-10-01T09:52:33.622Z,17.90
2022-10-01T09:55:26.781Z,20.15
2022-10-01T09:58:01.725Z,19.95
2022-10-01T10:00:29.809Z,19.75
2022-10-01T10:02:57.699Z,22.05
2022-10-01T10:05:28.159Z,19.98
2022-10-01T10:08:10.571Z,23.88
2022-10-01T10:10:40.529Z,18.55
2022-10-01T10:13:11.973Z,22.33
2022-10-01T10:15:51.403Z,21.92
2022-10-01T10:18:29.624Z,20.85
2022-10-01T10:20:59.354Z,18.58
2022-10-01T10:23:29.394Z,18.48
2022-10-01T10:26:05.081Z,22.60
2022-10-01T10:28:48.212Z,15.57
2022-10-01T10:31:16.120Z,16.27
2022-10-01T10:33:53.592Z,16.83
2022-10-01T10:36:28.983Z,17.73
2022-10-01T10:38:58.451Z,18.75
2022-10-01T10:41:29.076Z,20.25
2022-10-01T10:44:07.904Z,19.77
2022-10-01T10:46:42.757Z,19.13
2022-10-01T10:49:47.266Z,19.17
2022-10-01T10:52:30.369Z,16.42
2022-10-01T10:55:00.365Z,18.05
2022-10-01T10:57:34.318Z,17.23
2022-10-01T11:00:12.505Z,16.23
2022-10-01T11:02:49.033Z,19.60
2022-10-01T11:05:23.804Z,19.38
2022-10-01T11:07:56.453Z,19.92
2022-10-01T11:10:40.517Z,18.65
2022-10-01T11:13:18.601Z,20.10
2022-10-01T11:16:01.387Z,22.42
2022-10-01T11:18:36.010Z,18.80
2022-10-01T11:21:25.532Z,20.35
2022-10-01T11:24:15.134Z,19.90
2022-10-01T11:27:10.490Z,18.23
2022-10-01T11:30:11.957Z,21.73
2022-10-01T11:33:00.733Z,17.85
2022-10-01T11:35:42.331Z,18.17
2022-10-01T11:38:24.794Z,17.10
2022-10-01T11:40:59.797Z,14.98
2022-10-01T11:44:06.775Z,15.75
2022-10-01T11:47:04.582Z,16.33
2022-10-01T11:49:54.981Z,15.23
2022-10-01T11:52:33.873Z,15.45
2022-10-01T11:55:46.772Z,12.75
2022-10-01T11:58:37.414Z,13.65
2022-10-01T12:01:14.307Z,14.55
2022-10-01T12:04:02.205Z,16.08
2022-10-01T12:06:34.031Z,14.18
2022-10-01T12:09:23.581Z,13.00
2022-10-01T12:12:17.301Z,13.80
2022-10-01T12:15:00.681Z,11.10
2022-10-01T12:17:51.546Z,12.30
2022-10-01T12:20:41.401Z,11.80
2022-10-01T12:23:18.770Z,12.95
2022-10-01T12:26:27.390Z,12.50
2022-10-01T12:29:07.152Z,12.27
2022-10-01T12:31:51.583Z,13.88
2022-10-01T12:34:49.400Z,12.13
2022-10-01T12:37:50.207Z,10.27
2022-10-01T12:40:30.648Z,10.13
2022-10-01T12:43:35.905Z,11.55
2022-10-01T12:49:22.437Z,9.32
2022-10-01T12:51:59.255Z,11.77
2022-10-01T12:54:45.843Z,9.38
2022-10-01T12:57:36.853Z,7.65
2022-10-01T13:00:13.569Z,8.32
2022-10-01T13:02:58.700Z,6.90
2022-10-01T13:05:43.264Z,7.22
2022-10-01T13:10:57.463Z,7.53
2022-10-01T13:13:33.521Z,7.57
2022-10-01T13:16:19.063Z,8.63
2022-10-01T13:19:04.926Z,6.40
2022-10-01T13:21:45.818Z,7.50
2022-10-01T13:24:19.804Z,9.00
2022-10-01T13:26:54.149Z,10.30
2022-10-01T13:31:58.699Z,9.43
2022-10-01T13:34:40.585Z,11.30
2022-10-01T13:37:35.545Z,7.60
2022-10-01T13:42:44.762Z,8.23
2022-10-01T13:45:29.397Z,9.13
2022-10-01T13:48:10.424Z,5.85
2022-10-01T13:50:57.657Z,5.72
2022-10-01T13:53:27.578Z,6.38
2022-10-01T13:55:56.984Z,8.70
2022-10-01T13:58:30.476Z,6.95
2022-10-01T14:01:02.102Z,8.55
2022-10-01T14:03:43.208Z,6.00
2022-10-01T14:06:24.541Z,6.82
2022-10-01T14:09:18.414Z,8.10
2022-10-01T14:12:09.471Z,7.32
2022-10-01T14:15:12.705Z,6.97
2022-10-01T14:17:43.809Z,8.82
2022-10-01T14:20:23.994Z,11.95
2022-10-01T14:23:10.917Z,8.57
2022-10-01T14:25:51.418Z,9.15
2022-10-01T14:28:39.604Z,10.30
2022-10-01T14:31:22.235Z,10.07
2022-10-01T14:34:28.373Z,10.50
2022-10-01T14:36:57.028Z,8.98
2022-10-01T14:39:31.377Z,9.23
2022-10-01T14:41:59.210Z,9.85
2022-10-01T14:44:29.071Z,10.73
2022-10-01T14:46:59.090Z,11.32
2022-10-01T14:49:32.424Z,12.68
2022-10-01T14:52:03.807Z,13.65
2022-10-01T14:54:56.736Z,12.88
2022-10-01T14:57:38.221Z,13.57
2022-10-01T15:00:15.720Z,13.25
2022-10-01T15:02:47.910Z,15.90
2022-10-01T15:05:27.014Z,17.02
2022-10-01T15:07:59.711Z,15.50
2022-10-01T15:10:28.611Z,20.20
2022-10-01T15:12:57.596Z,19.50
2022-10-01T15:15:41.708Z,16.23
2022-10-01T15:21:06.779Z,14.98
2022-10-01T15:23:39.452Z,19.27
2022-10-01T15:26:11.347Z,13.88
2022-10-01T15:28:39.289Z,17.92
2022-10-01T15:31:07.861Z,15.75
2022-10-01T15:33:40.991Z,16.90
2022-10-01T15:36:15.873Z,16.73
2022-10-01T15:38:48.911Z,19.00
2022-10-01T15:41:31.848Z,19.63
2022-10-01T15:44:03.373Z,21.10
2022-10-01T15:46:35.095Z,19.98
2022-10-01T15:49:24.658Z,18.80
2022-10-01T15:52:21.277Z,21.15
2022-10-01T15:54:57.548Z,19.77
2022-10-01T15:57:25.921Z,20.42
2022-10-01T15:59:56.141Z,20.13
2022-10-01T16:02:27.392Z,20.27
2022-10-01T16:05:05.146Z,20.80
2022-10-01T16:07:36.350Z,20.08
2022-10-01T16:10:35.890Z,23.77
2022-10-01T16:13:41.145Z,22.65
2022-10-01T16:16:15.228Z,23.60
2022-10-01T16:18:43.540Z,23.67
2022-10-01T16:21:12.155Z,22.25
2022-10-01T16:23:44.526Z,31.33
2022-10-01T16:26:32.389Z,32.10
2022-10-01T16:29:27.087Z,32.50
2022-10-01T16:31:56.905Z,39.83
2022-10-01T16:34:27.593Z,35.85
2022-10-01T16:36:55.432Z,35.10
2022-10-01T16:39:24.616Z,35.70
2022-10-01T16:42:06.598Z,33.35
2022-10-01T16:44:41.523Z,34.22
2022-10-01T16:47:12.055Z,33.92
2022-10-01T16:49:39.819Z,41.63
2022-10-01T16:52:08.301Z,37.00
2022-10-01T16:54:36.038Z,35.45
2022-10-01T16:57:03.831Z,40.67
2022-10-01T16:59:33.860Z,40.35
2022-10-01T17:02:02.320Z,51.25
2022-10-01T17:04:33.969Z,47.53
2022-10-01T17:07:02.313Z,47.10
2022-10-01T17:09:30.193Z,45.70
2022-10-01T17:11:58.404Z,41.33
2022-10-01T17:14:26.252Z,44.42
2022-10-01T17:16:54.076Z,47.20
2022-10-01T17:19:22.094Z,43.88
2022-10-01T17:21:50.089Z,46.22
2022-10-01T17:24:18.076Z,45.50
2022-10-01T17:26:45.822Z,53.20
2022-10-01T17:29:13.997Z,55.88
2022-10-01T17:31:44.824Z,49.72
2022-10-01T17:34:13.253Z,51.95
2022-10-01T17:36:41.229Z,52.83
2022-10-01T17:39:08.964Z,53.75
2022-10-01T17:41:36.731Z,53.95
2022-10-01T17:44:04.772Z,55.30
2022-10-01T17:46:33.160Z,51.08
2022-10-01T17:49:01.049Z,47.67
2022-10-01T17:51:28.956Z,56.13
2022-10-01T17:53:57.026Z,52.20
2022-10-01T17:56:24.910Z,51.55
2022-10-01T17:58:54.752Z,57.72
2022-10-01T18:01:22.831Z,55.47
2022-10-01T18:03:55.799Z,56.03
2022-10-01T18:06:24.817Z,48.58
2022-10-01T18:08:56.669Z,52.47
2022-10-01T18:11:28.224Z,52.28
2022-10-01T18:13:56.157Z,57.63
2022-10-01T18:16:24.371Z,55.88
2022-10-01T18:21:44.947Z,57.47
2022-10-01T18:24:12.970Z,59.60
2022-10-01T18:26:41.040Z,58.90
2022-10-01T18:29:11.529Z,64.38
2022-10-01T18:31:41.108Z,66.05
2022-10-01T18:34:43.452Z,60.00
2022-10-01T18:37:52.736Z,61.67
2022-10-01T18:40:25.100Z,67.40
2022-10-01T18:43:17.774Z,69.35
2022-10-01T18:46:09.414Z,75.60
2022-10-01T18:49:00.502Z,70.30
2022-10-01T18:51:41.929Z,75.57
2022-10-01T18:54:54.800Z,81.43
2022-10-01T18:57:25.232Z,82.93
2022-10-01T19:00:02.317Z,89.85
2022-10-01T19:02:53.476Z,86.30
2022-10-01T19:05:47.469Z,82.40
2022-10-01T19:08:33.750Z,83.13
2022-10-01T19:11:17.982Z,87.45
2022-10-01T19:14:05.234Z,88.65
2022-10-01T19:17:11.190Z,81.82
2022-10-01T19:20:00.527Z,79.20
2022-10-01T19:22:52.552Z,77.20
2022-10-01T19:25:37.679Z,73.90
2022-10-01T19:28:24.051Z,74.70
2022-10-01T19:31:08.823Z,75.25
2022-10-01T19:33:47.087Z,77.40
2022-10-01T19:36:27.749Z,71.63
2022-10-01T19:39:01.123Z,76.03
2022-10-01T19:41:39.057Z,74.85
2022-10-01T19:44:24.081Z,82.43
2022-10-01T19:46:56.023Z,82.13
2022-10-01T19:49:27.514Z,82.78
2022-10-01T19:51:59.273Z,77.68
2022-10-01T19:54:36.514Z,84.28
2022-10-01T19:57:18.152Z,80.13
2022-10-01T19:59:47.366Z,75.05
2022-10-01T20:02:26.002Z,79.53
2022-10-01T20:05:09.379Z,73.93
2022-10-01T20:08:24.975Z,73.85
2022-10-01T20:11:12.471Z,85.93
2022-10-01T20:14:01.121Z,87.18
2022-10-01T20:16:47.310Z,85.10
2022-10-01T20:19:37.656Z,78.95
2022-10-01T20:22:20.477Z,88.60
2022-10-01T20:25:15.653Z,102.35
2022-10-01T20:27:52.714Z,105.65
2022-10-01T20:30:22.089Z,104.57
2022-10-01T20:33:08.131Z,92.60
2022-10-01T20:36:01.554Z,84.35
2022-10-01T20:38:42.165Z,90.25
2022-10-01T20:41:19.996Z,85.95
2022-10-01T20:43:57.509Z,79.75
2022-10-01T20:46:36.524Z,83.47
2022-10-01T20:49:30.827Z,77.43
2022-10-01T20:52:34.320Z,80.13
2022-10-01T20:55:13.257Z,72.03
2022-10-01T20:57:53.299Z,73.00
2022-10-01T21:00:24.498Z,69.40
2022-10-01T21:03:17.953Z,71.78
2022-10-01T21:06:03.594Z,71.90
2022-10-01T21:08:40.803Z,73.05
2022-10-01T21:11:30.813Z,77.15
2022-10-01T21:14:15.934Z,74.22
2022-10-01T21:17:02.434Z,73.68
2022-10-01T21:19:38.253Z,73.88
2022-10-01T21:22:25.507Z,76.57
2022-10-01T21:25:17.554Z,77.90
2022-10-01T21:28:18.732Z,76.60
2022-10-01T21:30:55.611Z,77.32
2022-10-01T21:33:32.616Z,73.50
2022-10-01T21:36:10.797Z,78.25
2022-10-01T21:38:58.767Z,71.65
2022-10-01T21:41:49.222Z,72.82
2022-10-01T21:44:47.293Z,75.43
2022-10-01T21:47:41.280Z,75.95
2022-10-01T21:50:46.739Z,71.78
2022-10-01T21:53:28.956Z,73.38
2022-10-01T21:56:08.120Z,71.88
2022-10-01T21:58:50.528Z,81.60
2022-10-01T22:02:03.399Z,75.10
2022-10-01T22:04:40.435Z,73.70
2022-10-01T22:07:17.492Z,69.22
2022-10-01T22:10:18.769Z,65.28
2022-10-01T22:12:55.033Z,63.55
2022-10-01T22:15:43.637Z,63.28
2022-10-01T22:18:18.257Z,57.53
2022-10-01T22:20:46.896Z,63.58
2022-10-01T22:23:18.385Z,50.25
2022-10-01T22:26:00.347Z,54.83
2022-10-01T22:28:37.717Z,53.50
2022-10-01T22:31:10.805Z,56.22
2022-10-01T22:33:52.786Z,52.70
2022-10-01T22:36:54.370Z,53.55
2022-10-01T22:39:29.478Z,58.65
2022-10-01T22:42:21.464Z,51.92
2022-10-01T22:44:49.328Z,48.92
2022-10-01T22:47:34.701Z,50.35
2022-10-01T22:50:26.889Z,51.08
2022-10-01T22:53:07.951Z,53.10
2022-10-01T22:55:47.876Z,47.95
2022-10-01T22:59:02.687Z,49.58
2022-10-01T23:02:50.240Z,50.17
2022-10-01T23:05:39.149Z,57.00
2022-10-01T23:08:18.328Z,51.45
2022-10-01T23:11:29.101Z,45.67
2022-10-01T23:14:14.871Z,44.85
2022-10-01T23:16:48.097Z,49.28
2022-10-01T23:19:40.308Z,45.78
2022-10-01T23:22:28.615Z,50.15
2022-10-01T23:25:10.242Z,52.45
2022-10-01T23:27:59.124Z,49.38
2022-10-01T23:30:50.747Z,53.25
2022-10-01T23:33:49.623Z,54.00
2022-10-01T23:36:34.050Z,56.17
2022-10-01T23:42:07.403Z,48.15
2022-10-01T23:44:50.187Z,49.42
2022-10-01T23:47:30.537Z,47.92
2022-10-01T23:50:02.086Z,43.40
2022-10-01T23:52:47.365Z,40.05
2022-10-01T23:56:07.864Z,38.78
2022-10-01T23:58:50.742Z,32.42
